sensor_id;sensor_type;location;lat;lon;timestamp;P1;durP1;ratioP1;P2;durP2;ratioP2
71566;SDS011;59403;47.456;19.120;2024-03-29T00:00:52;2.33;;;0.90;;
71566;SDS011;59403;47.456;19.120;2024-03-29T00:03:17;0.97;;;0.57;;
71566;SDS011;59403;47.456;19.120;2024-03-29T00:05:42;1.00;;;0.67;;
71566;SDS011;59403;47.456;19.120;2024-03-29T00:08:08;1.27;;;0.80;;
71566;SDS011;59403;47.456;19.120;2024-03-29T00:10:33;1.62;;;0.75;;
71566;SDS011;59403;47.456;19.120;2024-03-29T00:12:59;1.50;;;0.60;;
71566;SDS011;59403;47.456;19.120;2024-03-29T00:15:24;1.20;;;0.90;;
71566;SDS011;59403;47.456;19.120;2024-03-29T00:17:50;0.97;;;0.73;;
71566;SDS011;59403;47.456;19.120;2024-03-29T00:20:15;1.02;;;0.50;;
71566;SDS011;59403;47.456;19.120;2024-03-29T00:22:41;1.45;;;0.60;;
71566;SDS011;59403;47.456;19.120;2024-03-29T00:25:07;0.98;;;0.47;;
71566;SDS011;59403;47.456;19.120;2024-03-29T00:27:32;2.07;;;0.70;;
71566;SDS011;59403;47.456;19.120;2024-03-29T00:29:58;1.67;;;0.63;;
71566;SDS011;59403;47.456;19.120;2024-03-29T00:32:23;1.07;;;0.50;;
71566;SDS011;59403;47.456;19.120;2024-03-29T00:34:49;1.23;;;0.60;;
71566;SDS011;59403;47.456;19.120;2024-03-29T00:37:16;2.25;;;0.68;;
71566;SDS011;59403;47.456;19.120;2024-03-29T00:39:41;1.87;;;0.60;;
71566;SDS011;59403;47.456;19.120;2024-03-29T00:42:07;1.80;;;0.70;;
71566;SDS011;59403;47.456;19.120;2024-03-29T00:44:40;1.40;;;0.70;;
71566;SDS011;59403;47.456;19.120;2024-03-29T00:47:06;1.35;;;0.62;;
71566;SDS011;59403;47.456;19.120;2024-03-29T00:49:32;3.37;;;0.80;;
71566;SDS011;59403;47.456;19.120;2024-03-29T00:51:58;0.62;;;0.40;;
71566;SDS011;59403;47.456;19.120;2024-03-29T00:54:23;0.73;;;0.50;;
71566;SDS011;59403;47.456;19.120;2024-03-29T00:56:49;2.10;;;0.60;;
71566;SDS011;59403;47.456;19.120;2024-03-29T00:59:15;0.68;;;0.40;;
71566;SDS011;59403;47.456;19.120;2024-03-29T01:01:40;1.03;;;0.60;;
71566;SDS011;59403;47.456;19.120;2024-03-29T01:04:05;1.20;;;0.50;;
71566;SDS011;59403;47.456;19.120;2024-03-29T01:06:31;1.40;;;0.60;;
71566;SDS011;59403;47.456;19.120;2024-03-29T01:08:56;1.10;;;0.50;;
71566;SDS011;59403;47.456;19.120;2024-03-29T01:11:21;1.52;;;0.60;;
71566;SDS011;59403;47.456;19.120;2024-03-29T01:13:47;1.00;;;0.47;;
71566;SDS011;59403;47.456;19.120;2024-03-29T01:16:12;1.10;;;0.60;;
71566;SDS011;59403;47.456;19.120;2024-03-29T01:18:37;0.93;;;0.40;;
71566;SDS011;59403;47.456;19.120;2024-03-29T01:21:03;0.85;;;0.40;;
71566;SDS011;59403;47.456;19.120;2024-03-29T01:23:29;0.80;;;0.50;;
71566;SDS011;59403;47.456;19.120;2024-03-29T01:25:54;1.00;;;0.50;;
71566;SDS011;59403;47.456;19.120;2024-03-29T01:28:20;0.93;;;0.50;;
71566;SDS011;59403;47.456;19.120;2024-03-29T01:30:51;1.05;;;0.40;;
71566;SDS011;59403;47.456;19.120;2024-03-29T01:33:17;1.00;;;0.33;;
71566;SDS011;59403;47.456;19.120;2024-03-29T01:35:42;1.60;;;0.60;;
71566;SDS011;59403;47.456;19.120;2024-03-29T01:38:07;0.60;;;0.30;;
71566;SDS011;59403;47.456;19.120;2024-03-29T01:40:33;0.80;;;0.40;;
71566;SDS011;59403;47.456;19.120;2024-03-29T01:43:00;0.70;;;0.50;;
71566;SDS011;59403;47.456;19.120;2024-03-29T01:45:26;1.58;;;0.45;;
71566;SDS011;59403;47.456;19.120;2024-03-29T01:47:51;1.43;;;0.30;;
71566;SDS011;59403;47.456;19.120;2024-03-29T01:50:16;1.53;;;0.50;;
71566;SDS011;59403;47.456;19.120;2024-03-29T01:52:42;1.10;;;0.40;;
71566;SDS011;59403;47.456;19.120;2024-03-29T01:55:08;1.00;;;0.60;;
71566;SDS011;59403;47.456;19.120;2024-03-29T01:57:34;1.77;;;0.50;;
71566;SDS011;59403;47.456;19.120;2024-03-29T01:59:59;1.53;;;0.90;;
71566;SDS011;59403;47.456;19.120;2024-03-29T02:02:25;3.10;;;1.90;;
71566;SDS011;59403;47.456;19.120;2024-03-29T02:04:50;3.03;;;1.80;;
71566;SDS011;59403;47.456;19.120;2024-03-29T02:07:16;3.13;;;1.80;;
71566;SDS011;59403;47.456;19.120;2024-03-29T02:09:42;2.10;;;1.40;;
71566;SDS011;59403;47.456;19.120;2024-03-29T02:12:07;1.73;;;0.83;;
71566;SDS011;59403;47.456;19.120;2024-03-29T02:14:33;1.53;;;1.13;;
71566;SDS011;59403;47.456;19.120;2024-03-29T02:16:58;1.70;;;1.00;;
71566;SDS011;59403;47.456;19.120;2024-03-29T02:19:23;2.00;;;1.00;;
71566;SDS011;59403;47.456;19.120;2024-03-29T02:21:49;2.23;;;0.80;;
71566;SDS011;59403;47.456;19.120;2024-03-29T02:24:18;1.83;;;1.08;;
71566;SDS011;59403;47.456;19.120;2024-03-29T02:26:44;1.30;;;0.77;;
71566;SDS011;59403;47.456;19.120;2024-03-29T02:29:10;1.40;;;0.88;;
71566;SDS011;59403;47.456;19.120;2024-03-29T02:31:35;1.73;;;1.00;;
71566;SDS011;59403;47.456;19.120;2024-03-29T02:34:01;1.62;;;0.75;;
71566;SDS011;59403;47.456;19.120;2024-03-29T02:36:27;2.62;;;1.00;;
71566;SDS011;59403;47.456;19.120;2024-03-29T02:38:52;1.73;;;1.02;;
71566;SDS011;59403;47.456;19.120;2024-03-29T02:41:18;1.97;;;0.80;;
71566;SDS011;59403;47.456;19.120;2024-03-29T02:43:43;2.50;;;1.20;;
71566;SDS011;59403;47.456;19.120;2024-03-29T02:46:08;1.60;;;1.00;;
71566;SDS011;59403;47.456;19.120;2024-03-29T02:48:34;1.62;;;1.00;;
71566;SDS011;59403;47.456;19.120;2024-03-29T02:50:59;2.27;;;1.00;;
71566;SDS011;59403;47.456;19.120;2024-03-29T02:53:25;2.10;;;1.20;;
71566;SDS011;59403;47.456;19.120;2024-03-29T02:55:50;1.97;;;0.90;;
71566;SDS011;59403;47.456;19.120;2024-03-29T02:58:15;1.50;;;0.90;;
71566;SDS011;59403;47.456;19.120;2024-03-29T03:00:41;2.37;;;1.33;;
71566;SDS011;59403;47.456;19.120;2024-03-29T03:03:06;2.22;;;1.42;;
71566;SDS011;59403;47.456;19.120;2024-03-29T03:05:32;2.00;;;1.00;;
71566;SDS011;59403;47.456;19.120;2024-03-29T03:07:57;1.50;;;0.90;;
71566;SDS011;59403;47.456;19.120;2024-03-29T03:10:45;2.00;;;0.80;;
71566;SDS011;59403;47.456;19.120;2024-03-29T03:13:26;1.35;;;0.70;;
71566;SDS011;59403;47.456;19.120;2024-03-29T03:15:53;1.10;;;0.65;;
71566;SDS011;59403;47.456;19.120;2024-03-29T03:18:18;1.67;;;0.83;;
71566;SDS011;59403;47.456;19.120;2024-03-29T03:20:49;1.43;;;0.73;;
71566;SDS011;59403;47.456;19.120;2024-03-29T03:23:18;1.42;;;0.80;;
71566;SDS011;59403;47.456;19.120;2024-03-29T03:25:43;2.50;;;0.60;;
71566;SDS011;59403;47.456;19.120;2024-03-29T03:28:09;1.20;;;0.63;;
71566;SDS011;59403;47.456;19.120;2024-03-29T03:30:37;1.10;;;0.50;;
71566;SDS011;59403;47.456;19.120;2024-03-29T03:33:04;1.80;;;0.70;;
71566;SDS011;59403;47.456;19.120;2024-03-29T03:35:29;1.25;;;0.43;;
71566;SDS011;59403;47.456;19.120;2024-03-29T03:37:55;1.37;;;0.60;;
71566;SDS011;59403;47.456;19.120;2024-03-29T03:40:21;0.90;;;0.60;;
71566;SDS011;59403;47.456;19.120;2024-03-29T03:42:46;2.40;;;0.80;;
71566;SDS011;59403;47.456;19.120;2024-03-29T03:45:12;1.17;;;0.80;;
71566;SDS011;59403;47.456;19.120;2024-03-29T03:47:38;2.05;;;0.60;;
71566;SDS011;59403;47.456;19.120;2024-03-29T03:50:03;1.10;;;0.80;;
71566;SDS011;59403;47.456;19.120;2024-03-29T03:52:29;1.62;;;0.70;;
71566;SDS011;59403;47.456;19.120;2024-03-29T03:54:54;2.30;;;1.07;;
71566;SDS011;59403;47.456;19.120;2024-03-29T03:57:20;1.20;;;0.60;;
71566;SDS011;59403;47.456;19.120;2024-03-29T03:59:46;1.10;;;0.70;;
71566;SDS011;59403;47.456;19.120;2024-03-29T04:02:11;1.70;;;0.70;;
71566;SDS011;59403;47.456;19.120;2024-03-29T04:04:36;3.00;;;0.60;;
71566;SDS011;59403;47.456;19.120;2024-03-29T04:07:02;1.43;;;0.60;;
71566;SDS011;59403;47.456;19.120;2024-03-29T04:09:27;1.33;;;0.50;;
71566;SDS011;59403;47.456;19.120;2024-03-29T04:11:52;2.23;;;0.67;;
71566;SDS011;59403;47.456;19.120;2024-03-29T04:14:18;1.83;;;0.60;;
71566;SDS011;59403;47.456;19.120;2024-03-29T04:16:43;1.23;;;0.50;;
71566;SDS011;59403;47.456;19.120;2024-03-29T04:19:08;2.17;;;0.50;;
71566;SDS011;59403;47.456;19.120;2024-03-29T04:21:34;2.23;;;0.60;;
71566;SDS011;59403;47.456;19.120;2024-03-29T04:23:59;1.30;;;0.60;;
71566;SDS011;59403;47.456;19.120;2024-03-29T04:26:24;1.93;;;0.70;;
71566;SDS011;59403;47.456;19.120;2024-03-29T04:28:49;1.60;;;0.77;;
71566;SDS011;59403;47.456;19.120;2024-03-29T04:31:15;1.30;;;0.60;;
71566;SDS011;59403;47.456;19.120;2024-03-29T04:33:40;1.90;;;0.70;;
71566;SDS011;59403;47.456;19.120;2024-03-29T04:36:06;1.45;;;0.60;;
71566;SDS011;59403;47.456;19.120;2024-03-29T04:38:31;1.60;;;0.53;;
71566;SDS011;59403;47.456;19.120;2024-03-29T04:40:57;1.30;;;0.90;;
71566;SDS011;59403;47.456;19.120;2024-03-29T04:43:24;1.27;;;0.70;;
71566;SDS011;59403;47.456;19.120;2024-03-29T04:45:50;2.00;;;0.90;;
71566;SDS011;59403;47.456;19.120;2024-03-29T04:48:16;1.93;;;1.10;;
71566;SDS011;59403;47.456;19.120;2024-03-29T04:50:43;2.10;;;1.20;;
71566;SDS011;59403;47.456;19.120;2024-03-29T04:53:08;3.40;;;1.67;;
71566;SDS011;59403;47.456;19.120;2024-03-29T04:55:34;3.40;;;1.35;;
71566;SDS011;59403;47.456;19.120;2024-03-29T04:58:00;1.90;;;0.95;;
71566;SDS011;59403;47.456;19.120;2024-03-29T05:00:26;1.87;;;1.00;;
71566;SDS011;59403;47.456;19.120;2024-03-29T05:02:51;2.75;;;1.20;;
71566;SDS011;59403;47.456;19.120;2024-03-29T05:05:16;2.07;;;1.10;;
71566;SDS011;59403;47.456;19.120;2024-03-29T05:07:42;2.70;;;1.00;;
71566;SDS011;59403;47.456;19.120;2024-03-29T05:10:07;2.67;;;1.20;;
71566;SDS011;59403;47.456;19.120;2024-03-29T05:12:34;2.55;;;1.10;;
71566;SDS011;59403;47.456;19.120;2024-03-29T05:15:03;2.00;;;1.12;;
71566;SDS011;59403;47.456;19.120;2024-03-29T05:17:28;2.23;;;1.27;;
71566;SDS011;59403;47.456;19.120;2024-03-29T05:19:54;2.93;;;1.53;;
71566;SDS011;59403;47.456;19.120;2024-03-29T05:22:20;2.97;;;1.37;;
71566;SDS011;59403;47.456;19.120;2024-03-29T05:24:45;2.33;;;0.90;;
71566;SDS011;59403;47.456;19.120;2024-03-29T05:27:13;1.90;;;1.03;;
71566;SDS011;59403;47.456;19.120;2024-03-29T05:29:39;3.80;;;0.98;;
71566;SDS011;59403;47.456;19.120;2024-03-29T05:32:05;2.47;;;1.30;;
71566;SDS011;59403;47.456;19.120;2024-03-29T05:34:31;10.73;;;1.80;;
71566;SDS011;59403;47.456;19.120;2024-03-29T05:36:57;2.50;;;1.50;;
71566;SDS011;59403;47.456;19.120;2024-03-29T05:39:22;3.17;;;1.65;;
71566;SDS011;59403;47.456;19.120;2024-03-29T05:41:47;5.00;;;1.90;;
71566;SDS011;59403;47.456;19.120;2024-03-29T05:44:13;3.33;;;1.67;;
71566;SDS011;59403;47.456;19.120;2024-03-29T05:46:38;4.87;;;1.97;;
71566;SDS011;59403;47.456;19.120;2024-03-29T05:49:05;4.60;;;2.17;;
71566;SDS011;59403;47.456;19.120;2024-03-29T05:51:30;4.30;;;1.73;;
71566;SDS011;59403;47.456;19.120;2024-03-29T05:53:56;4.28;;;1.85;;
71566;SDS011;59403;47.456;19.120;2024-03-29T05:56:21;3.90;;;1.60;;
71566;SDS011;59403;47.456;19.120;2024-03-29T05:58:47;2.87;;;1.53;;
71566;SDS011;59403;47.456;19.120;2024-03-29T06:01:12;3.07;;;1.43;;
71566;SDS011;59403;47.456;19.120;2024-03-29T06:03:37;2.93;;;1.57;;
71566;SDS011;59403;47.456;19.120;2024-03-29T06:06:03;3.67;;;1.60;;
71566;SDS011;59403;47.456;19.120;2024-03-29T06:08:28;2.70;;;1.80;;
71566;SDS011;59403;47.456;19.120;2024-03-29T06:10:53;3.28;;;1.33;;
71566;SDS011;59403;47.456;19.120;2024-03-29T06:13:19;2.43;;;1.20;;
71566;SDS011;59403;47.456;19.120;2024-03-29T06:16:16;3.12;;;1.83;;
71566;SDS011;59403;47.456;19.120;2024-03-29T06:19:00;3.57;;;1.83;;
71566;SDS011;59403;47.456;19.120;2024-03-29T06:21:26;2.22;;;1.20;;
71566;SDS011;59403;47.456;19.120;2024-03-29T06:23:51;2.43;;;1.20;;
71566;SDS011;59403;47.456;19.120;2024-03-29T06:26:18;1.90;;;1.10;;
71566;SDS011;59403;47.456;19.120;2024-03-29T06:28:43;2.30;;;1.45;;
71566;SDS011;59403;47.456;19.120;2024-03-29T06:31:09;2.17;;;1.20;;
71566;SDS011;59403;47.456;19.120;2024-03-29T06:33:34;2.70;;;1.13;;
71566;SDS011;59403;47.456;19.120;2024-03-29T06:35:59;2.47;;;1.53;;
71566;SDS011;59403;47.456;19.120;2024-03-29T06:38:25;2.47;;;1.07;;
71566;SDS011;59403;47.456;19.120;2024-03-29T06:40:50;2.30;;;1.10;;
71566;SDS011;59403;47.456;19.120;2024-03-29T06:43:15;2.93;;;1.23;;
71566;SDS011;59403;47.456;19.120;2024-03-29T06:45:41;2.27;;;1.30;;
71566;SDS011;59403;47.456;19.120;2024-03-29T06:48:09;2.67;;;1.35;;
71566;SDS011;59403;47.456;19.120;2024-03-29T06:50:35;2.03;;;0.90;;
71566;SDS011;59403;47.456;19.120;2024-03-29T06:53:00;2.53;;;1.00;;
71566;SDS011;59403;47.456;19.120;2024-03-29T06:55:26;2.15;;;0.90;;
71566;SDS011;59403;47.456;19.120;2024-03-29T06:57:51;1.75;;;1.00;;
71566;SDS011;59403;47.456;19.120;2024-03-29T07:00:17;1.80;;;0.73;;
71566;SDS011;59403;47.456;19.120;2024-03-29T07:02:42;2.60;;;0.67;;
71566;SDS011;59403;47.456;19.120;2024-03-29T07:05:08;1.50;;;0.90;;
71566;SDS011;59403;47.456;19.120;2024-03-29T07:07:36;2.47;;;1.10;;
71566;SDS011;59403;47.456;19.120;2024-03-29T07:10:02;1.50;;;0.70;;
71566;SDS011;59403;47.456;19.120;2024-03-29T07:12:28;1.80;;;1.03;;
71566;SDS011;59403;47.456;19.120;2024-03-29T07:14:53;7.73;;;1.10;;
71566;SDS011;59403;47.456;19.120;2024-03-29T07:17:18;2.93;;;1.00;;
71566;SDS011;59403;47.456;19.120;2024-03-29T07:19:44;1.40;;;0.70;;
71566;SDS011;59403;47.456;19.120;2024-03-29T07:22:09;1.67;;;1.02;;
71566;SDS011;59403;47.456;19.120;2024-03-29T07:24:34;12.87;;;5.70;;
71566;SDS011;59403;47.456;19.120;2024-03-29T07:26:59;2.13;;;1.60;;
71566;SDS011;59403;47.456;19.120;2024-03-29T07:29:25;1.13;;;0.53;;
71566;SDS011;59403;47.456;19.120;2024-03-29T07:31:50;1.30;;;0.90;;
71566;SDS011;59403;47.456;19.120;2024-03-29T07:34:15;2.17;;;0.90;;
71566;SDS011;59403;47.456;19.120;2024-03-29T07:36:41;2.30;;;0.73;;
71566;SDS011;59403;47.456;19.120;2024-03-29T07:39:06;2.75;;;0.82;;
71566;SDS011;59403;47.456;19.120;2024-03-29T07:41:32;1.80;;;0.85;;
71566;SDS011;59403;47.456;19.120;2024-03-29T07:43:57;2.10;;;1.17;;
71566;SDS011;59403;47.456;19.120;2024-03-29T07:46:28;2.60;;;0.60;;
71566;SDS011;59403;47.456;19.120;2024-03-29T07:48:55;1.50;;;0.63;;
71566;SDS011;59403;47.456;19.120;2024-03-29T07:51:21;2.53;;;0.98;;
71566;SDS011;59403;47.456;19.120;2024-03-29T07:53:47;1.37;;;0.70;;
71566;SDS011;59403;47.456;19.120;2024-03-29T07:56:12;2.67;;;1.33;;
71566;SDS011;59403;47.456;19.120;2024-03-29T07:58:37;1.63;;;1.07;;
71566;SDS011;59403;47.456;19.120;2024-03-29T08:01:03;2.27;;;0.83;;
71566;SDS011;59403;47.456;19.120;2024-03-29T08:03:28;2.83;;;0.77;;
71566;SDS011;59403;47.456;19.120;2024-03-29T08:06:00;1.47;;;0.80;;
71566;SDS011;59403;47.456;19.120;2024-03-29T08:08:29;2.15;;;0.80;;
71566;SDS011;59403;47.456;19.120;2024-03-29T08:10:58;1.77;;;0.60;;
71566;SDS011;59403;47.456;19.120;2024-03-29T08:13:25;1.35;;;0.80;;
71566;SDS011;59403;47.456;19.120;2024-03-29T08:15:57;1.77;;;0.75;;
71566;SDS011;59403;47.456;19.120;2024-03-29T08:18:26;1.80;;;0.90;;
71566;SDS011;59403;47.456;19.120;2024-03-29T08:20:53;2.10;;;0.88;;
71566;SDS011;59403;47.456;19.120;2024-03-29T08:23:22;2.07;;;0.97;;
71566;SDS011;59403;47.456;19.120;2024-03-29T08:25:48;1.77;;;0.98;;
71566;SDS011;59403;47.456;19.120;2024-03-29T08:28:13;2.17;;;1.07;;
71566;SDS011;59403;47.456;19.120;2024-03-29T08:30:39;2.00;;;0.90;;
71566;SDS011;59403;47.456;19.120;2024-03-29T08:33:05;1.70;;;0.80;;
71566;SDS011;59403;47.456;19.120;2024-03-29T08:35:31;3.13;;;0.77;;
71566;SDS011;59403;47.456;19.120;2024-03-29T08:37:58;1.50;;;0.75;;
71566;SDS011;59403;47.456;19.120;2024-03-29T08:40:23;2.67;;;0.90;;
71566;SDS011;59403;47.456;19.120;2024-03-29T08:42:50;1.93;;;0.70;;
71566;SDS011;59403;47.456;19.120;2024-03-29T08:45:16;1.55;;;0.70;;
71566;SDS011;59403;47.456;19.120;2024-03-29T08:47:41;1.17;;;0.60;;
71566;SDS011;59403;47.456;19.120;2024-03-29T08:50:07;1.50;;;0.60;;
71566;SDS011;59403;47.456;19.120;2024-03-29T08:52:33;0.90;;;0.40;;
71566;SDS011;59403;47.456;19.120;2024-03-29T08:54:58;0.83;;;0.40;;
71566;SDS011;59403;47.456;19.120;2024-03-29T08:57:24;0.80;;;0.50;;
71566;SDS011;59403;47.456;19.120;2024-03-29T08:59:49;0.77;;;0.40;;
71566;SDS011;59403;47.456;19.120;2024-03-29T09:02:14;1.47;;;0.60;;
71566;SDS011;59403;47.456;19.120;2024-03-29T09:04:40;0.82;;;0.40;;
71566;SDS011;59403;47.456;19.120;2024-03-29T09:07:05;1.83;;;0.33;;
71566;SDS011;59403;47.456;19.120;2024-03-29T09:09:31;1.17;;;0.40;;
71566;SDS011;59403;47.456;19.120;2024-03-29T09:11:57;0.60;;;0.32;;
71566;SDS011;59403;47.456;19.120;2024-03-29T09:14:22;0.70;;;0.33;;
71566;SDS011;59403;47.456;19.120;2024-03-29T09:16:49;1.20;;;0.37;;
71566;SDS011;59403;47.456;19.120;2024-03-29T09:19:14;1.90;;;0.50;;
71566;SDS011;59403;47.456;19.120;2024-03-29T09:21:40;0.40;;;0.20;;
71566;SDS011;59403;47.456;19.120;2024-03-29T09:24:05;0.60;;;0.40;;
71566;SDS011;59403;47.456;19.120;2024-03-29T09:26:31;1.25;;;0.40;;
71566;SDS011;59403;47.456;19.120;2024-03-29T09:28:57;0.60;;;0.30;;
71566;SDS011;59403;47.456;19.120;2024-03-29T09:31:22;1.13;;;0.20;;
71566;SDS011;59403;47.456;19.120;2024-03-29T09:33:48;0.97;;;0.40;;
71566;SDS011;59403;47.456;19.120;2024-03-29T09:36:19;1.08;;;0.20;;
71566;SDS011;59403;47.456;19.120;2024-03-29T09:38:46;0.60;;;0.30;;
71566;SDS011;59403;47.456;19.120;2024-03-29T09:41:13;1.77;;;0.43;;
71566;SDS011;59403;47.456;19.120;2024-03-29T09:43:43;1.05;;;0.35;;
71566;SDS011;59403;47.456;19.120;2024-03-29T09:46:09;0.60;;;0.30;;
71566;SDS011;59403;47.456;19.120;2024-03-29T09:48:35;2.00;;;0.30;;
71566;SDS011;59403;47.456;19.120;2024-03-29T09:51:03;1.15;;;0.40;;
71566;SDS011;59403;47.456;19.120;2024-03-29T09:53:30;1.52;;;0.40;;
71566;SDS011;59403;47.456;19.120;2024-03-29T09:55:58;0.75;;;0.40;;
71566;SDS011;59403;47.456;19.120;2024-03-29T09:58:25;1.77;;;0.50;;
71566;SDS011;59403;47.456;19.120;2024-03-29T10:00:50;1.10;;;0.43;;
71566;SDS011;59403;47.456;19.120;2024-03-29T10:03:15;1.65;;;0.30;;
71566;SDS011;59403;47.456;19.120;2024-03-29T10:05:44;0.97;;;0.40;;
71566;SDS011;59403;47.456;19.120;2024-03-29T10:08:11;1.10;;;0.40;;
71566;SDS011;59403;47.456;19.120;2024-03-29T10:10:37;3.55;;;1.40;;
71566;SDS011;59403;47.456;19.120;2024-03-29T10:13:02;0.90;;;0.47;;
71566;SDS011;59403;47.456;19.120;2024-03-29T10:15:29;2.10;;;0.50;;
71566;SDS011;59403;47.456;19.120;2024-03-29T10:17:57;0.80;;;0.30;;
71566;SDS011;59403;47.456;19.120;2024-03-29T10:20:22;0.90;;;0.40;;
71566;SDS011;59403;47.456;19.120;2024-03-29T10:22:48;6.05;;;1.85;;
71566;SDS011;59403;47.456;19.120;2024-03-29T10:25:13;1.20;;;0.70;;
71566;SDS011;59403;47.456;19.120;2024-03-29T10:27:39;2.22;;;0.70;;
71566;SDS011;59403;47.456;19.120;2024-03-29T10:30:08;2.00;;;0.60;;
71566;SDS011;59403;47.456;19.120;2024-03-29T10:32:38;2.15;;;0.88;;
71566;SDS011;59403;47.456;19.120;2024-03-29T10:35:07;1.00;;;0.70;;
71566;SDS011;59403;47.456;19.120;2024-03-29T10:37:33;0.80;;;0.45;;
71566;SDS011;59403;47.456;19.120;2024-03-29T10:40:06;2.12;;;0.60;;
71566;SDS011;59403;47.456;19.120;2024-03-29T10:42:36;1.10;;;0.40;;
71566;SDS011;59403;47.456;19.120;2024-03-29T10:45:03;1.50;;;0.50;;
71566;SDS011;59403;47.456;19.120;2024-03-29T10:47:33;1.55;;;0.70;;
71566;SDS011;59403;47.456;19.120;2024-03-29T10:49:58;1.48;;;0.85;;
71566;SDS011;59403;47.456;19.120;2024-03-29T10:52:24;1.40;;;0.67;;
71566;SDS011;59403;47.456;19.120;2024-03-29T10:54:51;1.98;;;0.70;;
71566;SDS011;59403;47.456;19.120;2024-03-29T10:57:26;1.80;;;0.60;;
71566;SDS011;59403;47.456;19.120;2024-03-29T11:00:08;1.62;;;0.77;;
71566;SDS011;59403;47.456;19.120;2024-03-29T11:02:45;3.10;;;0.90;;
71566;SDS011;59403;47.456;19.120;2024-03-29T11:05:17;3.70;;;0.60;;
71566;SDS011;59403;47.456;19.120;2024-03-29T11:07:43;2.53;;;0.73;;
71566;SDS011;59403;47.456;19.120;2024-03-29T11:10:14;1.65;;;0.60;;
71566;SDS011;59403;47.456;19.120;2024-03-29T11:15:27;2.92;;;1.00;;
71566;SDS011;59403;47.456;19.120;2024-03-29T11:17:55;4.07;;;1.00;;
71566;SDS011;59403;47.456;19.120;2024-03-29T11:20:25;3.33;;;0.60;;
71566;SDS011;59403;47.456;19.120;2024-03-29T11:23:05;1.65;;;0.77;;
71566;SDS011;59403;47.456;19.120;2024-03-29T11:25:51;2.43;;;0.70;;
71566;SDS011;59403;47.456;19.120;2024-03-29T11:28:24;4.32;;;0.98;;
71566;SDS011;59403;47.456;19.120;2024-03-29T11:30:51;2.58;;;0.82;;
71566;SDS011;59403;47.456;19.120;2024-03-29T11:33:51;5.55;;;0.90;;
71566;SDS011;59403;47.456;19.120;2024-03-29T11:36:18;6.03;;;0.90;;
71566;SDS011;59403;47.456;19.120;2024-03-29T11:38:46;2.73;;;1.07;;
71566;SDS011;59403;47.456;19.120;2024-03-29T11:41:13;2.87;;;1.30;;
71566;SDS011;59403;47.456;19.120;2024-03-29T11:43:43;3.90;;;1.10;;
71566;SDS011;59403;47.456;19.120;2024-03-29T11:46:10;3.08;;;0.90;;
71566;SDS011;59403;47.456;19.120;2024-03-29T11:48:37;3.78;;;1.30;;
71566;SDS011;59403;47.456;19.120;2024-03-29T11:51:04;4.57;;;0.97;;
71566;SDS011;59403;47.456;19.120;2024-03-29T11:53:31;4.93;;;1.12;;
71566;SDS011;59403;47.456;19.120;2024-03-29T11:55:57;3.67;;;1.00;;
71566;SDS011;59403;47.456;19.120;2024-03-29T11:58:24;7.55;;;1.08;;
71566;SDS011;59403;47.456;19.120;2024-03-29T12:00:50;4.60;;;1.48;;
71566;SDS011;59403;47.456;19.120;2024-03-29T12:03:16;3.97;;;1.17;;
71566;SDS011;59403;47.456;19.120;2024-03-29T12:05:43;2.95;;;0.70;;
71566;SDS011;59403;47.456;19.120;2024-03-29T12:08:09;3.17;;;0.80;;
71566;SDS011;59403;47.456;19.120;2024-03-29T12:10:36;5.07;;;1.20;;
71566;SDS011;59403;47.456;19.120;2024-03-29T12:13:05;5.95;;;1.27;;
71566;SDS011;59403;47.456;19.120;2024-03-29T12:15:31;5.37;;;1.17;;
71566;SDS011;59403;47.456;19.120;2024-03-29T12:18:00;4.22;;;1.17;;
71566;SDS011;59403;47.456;19.120;2024-03-29T12:20:34;2.92;;;1.08;;
71566;SDS011;59403;47.456;19.120;2024-03-29T12:23:02;5.28;;;1.30;;
71566;SDS011;59403;47.456;19.120;2024-03-29T12:25:29;3.20;;;1.02;;
71566;SDS011;59403;47.456;19.120;2024-03-29T12:27:56;5.32;;;0.98;;
71566;SDS011;59403;47.456;19.120;2024-03-29T12:30:23;3.15;;;1.00;;
71566;SDS011;59403;47.456;19.120;2024-03-29T12:32:59;3.90;;;1.30;;
71566;SDS011;59403;47.456;19.120;2024-03-29T12:35:35;5.43;;;0.93;;
71566;SDS011;59403;47.456;19.120;2024-03-29T12:38:02;5.65;;;1.40;;
71566;SDS011;59403;47.456;19.120;2024-03-29T12:40:29;7.10;;;1.27;;
71566;SDS011;59403;47.456;19.120;2024-03-29T12:43:03;4.90;;;0.97;;
71566;SDS011;59403;47.456;19.120;2024-03-29T12:45:30;3.17;;;1.35;;
71566;SDS011;59403;47.456;19.120;2024-03-29T12:47:56;6.25;;;1.40;;
71566;SDS011;59403;47.456;19.120;2024-03-29T12:52:57;5.30;;;1.90;;
71566;SDS011;59403;47.456;19.120;2024-03-29T12:55:24;6.57;;;1.30;;
71566;SDS011;59403;47.456;19.120;2024-03-29T12:57:53;3.65;;;1.27;;
71566;SDS011;59403;47.456;19.120;2024-03-29T13:00:22;5.05;;;1.20;;
71566;SDS011;59403;47.456;19.120;2024-03-29T13:02:48;5.57;;;1.12;;
71566;SDS011;59403;47.456;19.120;2024-03-29T13:05:14;8.80;;;1.70;;
71566;SDS011;59403;47.456;19.120;2024-03-29T13:07:39;5.68;;;1.05;;
71566;SDS011;59403;47.456;19.120;2024-03-29T13:10:05;6.70;;;1.37;;
71566;SDS011;59403;47.456;19.120;2024-03-29T13:12:36;7.32;;;1.50;;
71566;SDS011;59403;47.456;19.120;2024-03-29T13:15:03;5.80;;;1.85;;
71566;SDS011;59403;47.456;19.120;2024-03-29T13:17:31;5.37;;;1.52;;
71566;SDS011;59403;47.456;19.120;2024-03-29T13:19:57;8.07;;;1.40;;
71566;SDS011;59403;47.456;19.120;2024-03-29T13:22:22;4.23;;;1.40;;
71566;SDS011;59403;47.456;19.120;2024-03-29T13:24:47;5.60;;;1.37;;
71566;SDS011;59403;47.456;19.120;2024-03-29T13:27:13;4.60;;;1.10;;
71566;SDS011;59403;47.456;19.120;2024-03-29T13:29:38;7.87;;;1.20;;
71566;SDS011;59403;47.456;19.120;2024-03-29T13:32:04;2.72;;;0.88;;
71566;SDS011;59403;47.456;19.120;2024-03-29T13:34:30;6.40;;;1.50;;
71566;SDS011;59403;47.456;19.120;2024-03-29T13:36:55;6.67;;;1.57;;
71566;SDS011;59403;47.456;19.120;2024-03-29T13:39:21;7.37;;;1.10;;
71566;SDS011;59403;47.456;19.120;2024-03-29T13:41:48;4.55;;;1.00;;
71566;SDS011;59403;47.456;19.120;2024-03-29T13:44:14;5.97;;;1.20;;
71566;SDS011;59403;47.456;19.120;2024-03-29T13:46:42;5.60;;;1.33;;
71566;SDS011;59403;47.456;19.120;2024-03-29T13:49:08;9.90;;;1.52;;
71566;SDS011;59403;47.456;19.120;2024-03-29T13:51:34;5.50;;;1.45;;
71566;SDS011;59403;47.456;19.120;2024-03-29T13:53:59;5.57;;;1.40;;
71566;SDS011;59403;47.456;19.120;2024-03-29T13:56:24;9.00;;;1.47;;
71566;SDS011;59403;47.456;19.120;2024-03-29T13:58:50;5.60;;;1.50;;
71566;SDS011;59403;47.456;19.120;2024-03-29T14:01:16;5.45;;;1.20;;
71566;SDS011;59403;47.456;19.120;2024-03-29T14:03:42;5.80;;;1.40;;
71566;SDS011;59403;47.456;19.120;2024-03-29T14:06:08;5.00;;;1.33;;
71566;SDS011;59403;47.456;19.120;2024-03-29T14:08:33;8.20;;;1.73;;
71566;SDS011;59403;47.456;19.120;2024-03-29T14:10:59;3.37;;;1.12;;
71566;SDS011;59403;47.456;19.120;2024-03-29T14:13:25;4.82;;;1.58;;
71566;SDS011;59403;47.456;19.120;2024-03-29T14:15:50;3.17;;;1.20;;
71566;SDS011;59403;47.456;19.120;2024-03-29T14:18:16;6.40;;;1.25;;
71566;SDS011;59403;47.456;19.120;2024-03-29T14:20:41;4.20;;;1.27;;
71566;SDS011;59403;47.456;19.120;2024-03-29T14:23:06;6.53;;;1.23;;
71566;SDS011;59403;47.456;19.120;2024-03-29T14:25:35;5.40;;;1.27;;
71566;SDS011;59403;47.456;19.120;2024-03-29T14:28:01;4.55;;;1.48;;
71566;SDS011;59403;47.456;19.120;2024-03-29T14:30:27;9.13;;;1.70;;
71566;SDS011;59403;47.456;19.120;2024-03-29T14:32:54;6.07;;;1.73;;
71566;SDS011;59403;47.456;19.120;2024-03-29T14:35:21;6.55;;;1.87;;